createdAt,value
2022-09-02T00:03:18.486Z,16.06
2022-09-02T00:08:11.904Z,16.17
2022-09-02T00:13:06.017Z,16.03
2022-09-02T00:17:57.757Z,15.98
2022-09-02T00:22:50.821Z,15.87
2022-09-02T00:27:42.721Z,15.80
2022-09-02T00:32:34.564Z,15.82
2022-09-02T00:37:27.502Z,15.75
2022-09-02T00:42:21.876Z,15.70
2022-09-02T00:47:15.345Z,15.74
2022-09-02T00:52:15.773Z,15.79
2022-09-02T00:57:19.247Z,15.70
2022-09-02T01:02:13.357Z,15.72
2022-09-02T01:07:07.090Z,15.58
2022-09-02T01:12:03.021Z,15.44
2022-09-02T01:16:59.990Z,15.30
2022-09-02T01:21:57.205Z,15.15
2022-09-02T01:26:54.191Z,14.99
2022-09-02T01:31:46.103Z,14.86
2022-09-02T01:36:40.784Z,14.74
2022-09-02T01:41:32.500Z,14.65
2022-09-02T01:46:24.315Z,14.63
2022-09-02T01:51:20.477Z,14.77
2022-09-02T01:56:13.409Z,14.86
2022-09-02T02:01:05.328Z,14.78
2022-09-02T02:05:57.120Z,14.75
2022-09-02T02:10:49.974Z,14.61
2022-09-02T02:15:44.291Z,14.58
2022-09-02T02:31:17.895Z,14.14
2022-09-02T02:36:10.337Z,14.01
2022-09-02T02:41:04.779Z,13.88
2022-09-02T02:45:56.600Z,13.80
2022-09-02T02:50:48.645Z,13.82
2022-09-02T02:55:40.654Z,13.77
2022-09-02T03:00:33.567Z,13.71
2022-09-02T03:05:28.246Z,13.67
2022-09-02T03:10:21.743Z,13.82
2022-09-02T03:15:17.093Z,13.63
2022-09-02T04:59:14.655Z,12.86
2022-09-02T07:52:52.528Z,18.45
